createdAt,value
2022-08-25T00:01:39.895Z,2.10
2022-08-25T00:04:11.537Z,2.40
2022-08-25T00:06:41.117Z,2.22
2022-08-25T00:09:09.260Z,1.77
2022-08-25T00:11:38.091Z,2.33
2022-08-25T00:14:08.892Z,2.50
2022-08-25T00:16:35.556Z,2.47
2022-08-25T00:19:07.121Z,2.45
2022-08-25T00:21:33.702Z,2.38
2022-08-25T00:24:02.411Z,2.55
2022-08-25T00:26:29.857Z,2.50
2022-08-25T00:29:01.622Z,2.47
2022-08-25T00:31:38.532Z,2.45
2022-08-25T00:34:09.169Z,2.28
2022-08-25T00:36:36.111Z,2.45
2022-08-25T00:39:04.102Z,2.83
2022-08-25T00:41:30.622Z,2.08
2022-08-25T00:44:00.681Z,2.25
2022-08-25T00:46:32.019Z,2.30
2022-08-25T00:49:17.954Z,2.60
2022-08-25T00:51:59.599Z,2.45
2022-08-25T00:54:42.646Z,2.92
2022-08-25T00:57:12.849Z,2.50
2022-08-25T00:59:40.800Z,2.63
2022-08-25T01:02:13.583Z,2.53
2022-08-25T01:04:43.696Z,2.63
2022-08-25T01:07:18.731Z,2.75
2022-08-25T01:09:47.729Z,2.78
2022-08-25T01:12:14.926Z,3.00
2022-08-25T01:14:42.427Z,3.00
2022-08-25T01:17:09.590Z,2.80
2022-08-25T01:19:36.271Z,2.50
2022-08-25T01:22:03.485Z,2.75
2022-08-25T01:24:40.967Z,3.15
2022-08-25T01:27:08.136Z,2.72
2022-08-25T01:29:36.113Z,2.75
2022-08-25T01:32:06.354Z,2.40
2022-08-25T01:34:36.034Z,3.20
2022-08-25T01:37:03.905Z,2.40
2022-08-25T01:39:33.991Z,2.70
2022-08-25T01:42:04.318Z,2.80
2022-08-25T01:44:32.624Z,2.75
2022-08-25T01:46:59.186Z,2.60
2022-08-25T01:49:25.735Z,2.80
2022-08-25T01:51:56.574Z,2.88
2022-08-25T01:54:23.707Z,2.78
2022-08-25T01:56:50.236Z,2.88
2022-08-25T01:59:23.836Z,2.40
2022-08-25T02:01:59.676Z,3.15
2022-08-25T02:04:29.413Z,2.42
2022-08-25T02:06:55.961Z,3.08
2022-08-25T02:09:22.444Z,2.70
2022-08-25T02:11:48.964Z,3.33
2022-08-25T02:14:16.930Z,2.95
2022-08-25T02:16:48.573Z,2.80
2022-08-25T02:19:16.589Z,2.95
2022-08-25T02:21:43.121Z,2.75
2022-08-25T02:24:10.213Z,3.10
2022-08-25T02:26:36.716Z,3.00
2022-08-25T02:29:05.516Z,2.95
2022-08-25T02:31:32.208Z,3.22
2022-08-25T02:33:58.800Z,3.08
2022-08-25T02:36:25.362Z,2.65
2022-08-25T02:38:51.992Z,2.92
2022-08-25T02:41:21.937Z,3.22
2022-08-25T02:43:55.265Z,3.25
2022-08-25T02:46:24.945Z,3.20
2022-08-25T02:48:53.310Z,2.85
2022-08-25T02:51:22.641Z,3.00
2022-08-25T02:53:49.314Z,3.03
2022-08-25T02:56:17.762Z,3.00
2022-08-25T02:58:45.867Z,2.97
2022-08-25T03:01:12.929Z,3.25
2022-08-25T03:03:40.561Z,3.00
2022-08-25T03:06:10.124Z,3.30
2022-08-25T03:08:37.069Z,3.10
2022-08-25T03:11:04.343Z,3.10
2022-08-25T03:13:32.239Z,3.20
2022-08-25T03:16:03.225Z,2.92
2022-08-25T03:18:30.301Z,3.30
2022-08-25T03:20:57.942Z,3.38
2022-08-25T03:23:24.858Z,4.07
2022-08-25T03:26:31.943Z,3.28
2022-08-25T03:28:58.866Z,3.28
2022-08-25T03:31:28.716Z,3.47
2022-08-25T03:33:55.482Z,3.67
2022-08-25T03:36:22.201Z,3.10
2022-08-25T03:38:48.925Z,3.03
2022-08-25T03:41:19.886Z,3.70
2022-08-25T03:43:48.191Z,3.03
2022-08-25T03:46:23.778Z,3.10
2022-08-25T03:48:51.150Z,3.35
2022-08-25T03:51:23.033Z,3.50
2022-08-25T03:53:50.562Z,3.47
2022-08-25T03:56:17.805Z,3.72
2022-08-25T03:58:44.802Z,3.60
2022-08-25T04:01:15.346Z,4.03
2022-08-25T04:03:42.073Z,3.63
2022-08-25T04:06:08.814Z,4.00
2022-08-25T04:08:36.686Z,3.50
2022-08-25T04:11:13.102Z,4.00
2022-08-25T04:13:41.951Z,4.25
2022-08-25T04:16:17.030Z,3.42
2022-08-25T04:18:43.838Z,3.58
2022-08-25T04:21:12.075Z,3.88
2022-08-25T04:23:44.183Z,3.80
2022-08-25T04:26:17.646Z,3.60
2022-08-25T04:28:44.139Z,3.90
2022-08-25T04:31:12.621Z,3.90
2022-08-25T04:33:39.402Z,4.00
2022-08-25T04:36:12.121Z,4.30
2022-08-25T04:41:07.480Z,4.13
2022-08-25T04:43:35.399Z,3.97
2022-08-25T04:46:08.155Z,4.50
2022-08-25T04:48:35.164Z,5.47
2022-08-25T04:51:06.900Z,4.65
2022-08-25T04:53:34.338Z,4.75
2022-08-25T04:56:03.804Z,4.57
2022-08-25T04:58:30.687Z,4.55
2022-08-25T05:01:12.119Z,5.13
2022-08-25T05:03:39.209Z,5.65
2022-08-25T05:06:06.500Z,5.00
2022-08-25T05:08:36.053Z,4.43
2022-08-25T05:11:06.976Z,5.13
2022-08-25T05:13:34.713Z,4.75
2022-08-25T05:16:02.344Z,5.32
2022-08-25T05:18:31.271Z,5.22
2022-08-25T05:21:05.733Z,4.40
2022-08-25T05:23:32.502Z,4.70
2022-08-25T05:26:05.274Z,4.90
2022-08-25T05:28:32.224Z,5.25
2022-08-25T05:31:00.469Z,5.45
2022-08-25T05:33:27.408Z,5.03
2022-08-25T05:35:58.683Z,4.95
2022-08-25T05:38:25.311Z,5.40
2022-08-25T05:41:03.244Z,5.30
2022-08-25T05:43:30.474Z,4.95
2022-08-25T05:45:58.484Z,5.25
2022-08-25T05:48:26.534Z,4.88
2022-08-25T05:50:57.970Z,4.70
2022-08-25T05:53:25.704Z,4.70
2022-08-25T05:55:54.168Z,4.72
2022-08-25T05:58:22.647Z,3.45
2022-08-25T06:00:50.118Z,5.20
2022-08-25T06:03:17.402Z,4.40
2022-08-25T06:05:44.046Z,4.20
2022-08-25T06:08:10.989Z,4.15
2022-08-25T06:10:38.341Z,4.38
2022-08-25T06:13:06.521Z,3.83
2022-08-25T06:15:33.911Z,4.50
2022-08-25T06:18:01.952Z,4.15
2022-08-25T06:20:31.336Z,3.92
2022-08-25T06:22:58.724Z,4.22
2022-08-25T06:25:26.408Z,6.40
2022-08-25T06:27:54.445Z,4.38
2022-08-25T06:30:25.706Z,5.47
2022-08-25T06:32:55.394Z,3.90
2022-08-25T06:35:22.783Z,3.42
2022-08-25T06:37:49.289Z,3.55
2022-08-25T06:40:16.470Z,4.70
2022-08-25T06:42:43.082Z,3.85
2022-08-25T06:45:10.033Z,4.20
2022-08-25T06:47:36.522Z,4.82
2022-08-25T06:50:04.490Z,4.30
2022-08-25T06:52:31.636Z,4.22
2022-08-25T06:54:58.172Z,4.88
2022-08-25T06:57:24.812Z,3.65
2022-08-25T06:59:53.562Z,3.55
2022-08-25T07:02:21.773Z,4.40
2022-08-25T07:04:48.833Z,3.85
2022-08-25T07:07:15.399Z,4.47
2022-08-25T07:09:41.899Z,3.55
2022-08-25T07:12:08.690Z,3.17
2022-08-25T07:14:36.384Z,3.22
2022-08-25T07:17:04.067Z,3.92
2022-08-25T07:19:38.398Z,4.45
2022-08-25T07:22:09.362Z,4.68
2022-08-25T07:24:36.212Z,4.25
2022-08-25T07:27:02.765Z,3.75
2022-08-25T07:29:32.731Z,3.35
2022-08-25T07:32:01.437Z,3.28
2022-08-25T07:34:52.300Z,2.70
2022-08-25T07:37:38.285Z,2.60
2022-08-25T07:40:08.945Z,2.42
2022-08-25T07:42:36.012Z,2.40
2022-08-25T07:45:21.462Z,2.97
2022-08-25T07:47:48.878Z,2.10
2022-08-25T07:50:18.864Z,2.08
2022-08-25T07:52:52.069Z,1.80
2022-08-25T07:55:23.046Z,2.28
2022-08-25T07:58:02.539Z,2.15
2022-08-25T08:00:32.166Z,1.92
2022-08-25T08:02:59.560Z,2.25
2022-08-25T08:05:27.294Z,1.80
2022-08-25T08:07:55.349Z,2.10
2022-08-25T08:10:54.203Z,2.00
2022-08-25T08:13:10.383Z,1.85
2022-08-25T08:15:37.963Z,1.92
2022-08-25T08:18:04.634Z,1.58
2022-08-25T08:20:42.359Z,1.85
2022-08-25T08:23:10.098Z,1.75
2022-08-25T08:25:36.549Z,1.95
2022-08-25T08:28:03.358Z,1.98
2022-08-25T08:30:30.274Z,2.10
2022-08-25T08:33:13.034Z,1.83
2022-08-25T08:35:43.324Z,2.30
2022-08-25T08:38:16.087Z,1.83
2022-08-25T08:41:23.195Z,1.77
2022-08-25T08:43:56.282Z,1.70
2022-08-25T08:46:23.280Z,1.60
2022-08-25T08:49:05.790Z,1.80
2022-08-25T08:51:51.290Z,1.30
2022-08-25T08:54:25.041Z,1.58
2022-08-25T08:57:09.742Z,1.80
2022-08-25T09:00:05.865Z,1.60
2022-08-25T09:02:51.429Z,1.60
2022-08-25T09:05:21.096Z,1.52
2022-08-25T09:08:07.021Z,1.42
2022-08-25T09:11:01.266Z,1.40
2022-08-25T09:13:38.653Z,1.52
2022-08-25T09:16:43.711Z,1.70
2022-08-25T09:19:36.902Z,1.88
2022-08-25T09:22:35.347Z,1.40
2022-08-25T09:25:11.192Z,1.80
2022-08-25T09:27:58.304Z,1.23
2022-08-25T09:30:27.533Z,1.65
2022-08-25T09:33:03.835Z,1.30
2022-08-25T09:35:35.133Z,1.50
2022-08-25T09:38:13.730Z,1.98
2022-08-25T09:40:45.097Z,1.38
2022-08-25T09:43:20.608Z,1.75
2022-08-25T09:45:56.067Z,1.40
2022-08-25T09:48:39.731Z,1.40
2022-08-25T09:51:42.607Z,1.48
2022-08-25T09:54:12.499Z,1.40
2022-08-25T09:56:52.162Z,1.25
2022-08-25T09:59:35.671Z,1.50
2022-08-25T10:02:15.081Z,1.60
2022-08-25T10:04:42.450Z,1.33
2022-08-25T10:07:33.917Z,1.67
2022-08-25T10:10:07.588Z,1.63
2022-08-25T10:12:51.525Z,1.35
2022-08-25T10:15:36.811Z,1.50
2022-08-25T10:18:15.724Z,1.30
2022-08-25T10:20:44.764Z,1.35
2022-08-25T10:23:14.402Z,1.85
2022-08-25T10:25:57.904Z,1.52
2022-08-25T10:28:35.314Z,1.75
2022-08-25T10:31:31.788Z,1.42
2022-08-25T10:34:07.157Z,1.80
2022-08-25T10:37:06.266Z,1.58
2022-08-25T10:40:02.347Z,1.33
2022-08-25T10:42:29.497Z,1.83
2022-08-25T10:45:34.061Z,1.58
2022-08-25T10:48:25.516Z,1.02
2022-08-25T10:51:27.766Z,1.30
2022-08-25T10:54:04.226Z,1.20
2022-08-25T10:56:40.760Z,1.30
2022-08-25T10:59:21.414Z,1.50
2022-08-25T11:02:06.082Z,1.13
2022-08-25T11:04:42.154Z,1.52
2022-08-25T11:07:15.817Z,1.50
2022-08-25T11:09:49.293Z,1.17
2022-08-25T11:12:31.631Z,1.50
2022-08-25T11:15:04.106Z,1.35
2022-08-25T11:17:50.354Z,1.20
2022-08-25T11:20:27.064Z,1.10
2022-08-25T11:23:08.723Z,1.20
2022-08-25T11:25:43.173Z,1.33
2022-08-25T11:28:41.678Z,1.25
2022-08-25T11:31:09.276Z,1.70
2022-08-25T11:33:36.768Z,1.38
2022-08-25T11:36:05.684Z,1.20
2022-08-25T11:38:55.081Z,1.70
2022-08-25T11:41:42.231Z,1.13
2022-08-25T11:44:23.094Z,1.25
2022-08-25T11:47:25.230Z,1.50
2022-08-25T11:50:08.616Z,1.20
2022-08-25T11:52:38.142Z,1.50
2022-08-25T11:55:11.587Z,1.23
2022-08-25T11:57:39.859Z,1.10
2022-08-25T12:00:21.500Z,1.50
2022-08-25T12:02:51.883Z,1.10
2022-08-25T12:05:22.047Z,1.30
2022-08-25T12:08:10.081Z,1.27
2022-08-25T12:10:55.029Z,1.35
2022-08-25T12:13:41.305Z,1.20
2022-08-25T12:16:36.762Z,1.40
2022-08-25T12:19:27.049Z,1.63
2022-08-25T12:22:18.866Z,1.33
2022-08-25T12:25:09.847Z,1.10
2022-08-25T12:27:51.581Z,1.03
2022-08-25T12:30:47.659Z,1.40
2022-08-25T12:33:52.913Z,1.65
2022-08-25T12:36:31.057Z,1.38
2022-08-25T12:39:16.637Z,1.40
2022-08-25T12:42:23.335Z,1.40
2022-08-25T12:45:33.188Z,0.80
2022-08-25T12:48:28.403Z,0.82
2022-08-25T12:51:01.011Z,0.93
2022-08-25T12:53:46.070Z,1.23
2022-08-25T12:56:27.660Z,1.10
2022-08-25T13:01:54.395Z,1.10
2022-08-25T13:04:44.741Z,1.30
2022-08-25T13:07:20.389Z,1.20
2022-08-25T13:10:20.900Z,1.33
2022-08-25T13:13:09.208Z,1.75
2022-08-25T13:15:45.141Z,1.25
2022-08-25T13:18:13.579Z,1.40
2022-08-25T13:20:40.264Z,1.52
2022-08-25T13:23:10.702Z,1.10
2022-08-25T13:25:46.632Z,1.10
2022-08-25T13:28:24.715Z,0.82
2022-08-25T13:31:01.830Z,1.33
2022-08-25T13:33:29.347Z,1.25
2022-08-25T13:36:16.818Z,1.20
2022-08-25T13:38:45.769Z,0.98
2022-08-25T13:41:19.234Z,1.05
2022-08-25T13:43:45.819Z,1.00
2022-08-25T13:46:12.872Z,1.20
2022-08-25T13:48:49.375Z,1.08
2022-08-25T13:51:31.202Z,1.13
2022-08-25T13:54:04.257Z,1.00
2022-08-25T13:56:38.771Z,1.10
2022-08-25T13:59:24.517Z,0.95
2022-08-25T14:01:54.173Z,1.25
2022-08-25T14:04:24.221Z,1.08
2022-08-25T14:07:20.182Z,1.20
2022-08-25T14:10:06.138Z,1.00
2022-08-25T14:12:50.907Z,1.00
2022-08-25T14:15:17.385Z,1.10
2022-08-25T14:17:48.461Z,1.30
2022-08-25T14:22:58.112Z,1.15
2022-08-25T14:25:26.743Z,0.82
2022-08-25T14:28:07.476Z,1.13
2022-08-25T14:30:36.200Z,1.00
2022-08-25T14:33:04.446Z,1.40
2022-08-25T14:35:31.715Z,1.50
2022-08-25T14:37:58.428Z,1.27
2022-08-25T14:40:24.968Z,1.40
2022-08-25T14:42:51.516Z,1.30
2022-08-25T14:45:19.194Z,1.20
2022-08-25T14:47:49.780Z,1.30
2022-08-25T14:50:20.171Z,1.00
2022-08-25T14:52:48.273Z,1.33
2022-08-25T14:55:21.136Z,1.10
2022-08-25T14:57:58.586Z,1.30
2022-08-25T15:00:26.038Z,1.30
2022-08-25T15:02:52.973Z,1.45
2022-08-25T15:05:28.423Z,1.42
2022-08-25T15:08:14.889Z,1.42
2022-08-25T15:10:41.970Z,1.20
2022-08-25T15:13:10.401Z,1.80
2022-08-25T15:15:40.214Z,1.27
2022-08-25T15:18:20.418Z,1.40
2022-08-25T15:20:46.949Z,1.20
2022-08-25T15:23:17.419Z,1.33
2022-08-25T15:25:47.290Z,1.30
2022-08-25T15:28:17.234Z,1.30
2022-08-25T15:30:45.625Z,1.60
2022-08-25T15:33:13.430Z,1.70
2022-08-25T15:35:40.325Z,1.60
2022-08-25T15:38:08.020Z,1.50
2022-08-25T15:40:35.260Z,1.25
2022-08-25T15:43:01.890Z,1.65
2022-08-25T15:45:29.547Z,1.38
2022-08-25T15:47:57.382Z,1.65
2022-08-25T15:50:26.016Z,1.67
2022-08-25T15:52:53.215Z,1.40
2022-08-25T15:55:20.092Z,1.67
2022-08-25T15:57:47.800Z,1.60
2022-08-25T16:00:18.044Z,1.50
2022-08-25T16:02:45.401Z,1.70
2022-08-25T16:05:13.703Z,1.90
2022-08-25T16:07:42.854Z,1.73
2022-08-25T16:10:10.382Z,1.65
2022-08-25T16:12:37.572Z,1.73
2022-08-25T16:15:04.429Z,2.10
2022-08-25T16:17:30.925Z,1.77
2022-08-25T16:19:57.443Z,1.95
2022-08-25T16:22:24.014Z,1.60
2022-08-25T16:24:52.734Z,1.90
2022-08-25T16:27:19.895Z,1.80
2022-08-25T16:29:47.278Z,2.05
2022-08-25T16:32:15.315Z,2.03
2022-08-25T16:34:43.090Z,1.73
2022-08-25T16:37:10.957Z,2.05
2022-08-25T16:39:39.999Z,1.80
2022-08-25T16:42:07.946Z,1.90
2022-08-25T16:44:34.514Z,1.92
2022-08-25T16:47:01.431Z,2.15
2022-08-25T16:49:28.066Z,2.10
2022-08-25T16:51:57.485Z,2.47
2022-08-25T16:54:43.549Z,1.77
2022-08-25T16:57:10.921Z,1.90
2022-08-25T16:59:37.394Z,1.80
2022-08-25T17:02:04.167Z,2.25
2022-08-25T17:04:32.562Z,2.70
2022-08-25T17:06:59.683Z,2.00
2022-08-25T17:09:26.170Z,1.83
2022-08-25T17:11:56.736Z,2.00
2022-08-25T17:14:24.071Z,1.77
2022-08-25T17:16:54.506Z,2.03
2022-08-25T17:19:21.617Z,2.08
2022-08-25T17:21:50.642Z,2.22
2022-08-25T17:24:17.818Z,1.83
2022-08-25T17:26:50.102Z,1.73
2022-08-25T17:29:17.582Z,2.20
2022-08-25T17:31:46.098Z,1.90
2022-08-25T17:34:16.390Z,2.25
2022-08-25T17:36:43.803Z,1.85
2022-08-25T17:39:14.076Z,2.10
2022-08-25T17:41:43.058Z,1.60
2022-08-25T17:44:09.577Z,1.80
2022-08-25T17:46:36.567Z,1.73
2022-08-25T17:49:04.470Z,2.22
2022-08-25T17:51:31.750Z,1.95
2022-08-25T17:53:58.801Z,2.38
2022-08-25T17:56:27.544Z,1.83
2022-08-25T17:58:55.796Z,2.08
2022-08-25T18:01:25.980Z,1.95
2022-08-25T18:03:53.951Z,3.85
2022-08-25T18:06:21.574Z,2.80
2022-08-25T18:08:51.300Z,3.45
2022-08-25T18:11:21.541Z,2.90
2022-08-25T18:13:48.056Z,3.10
2022-08-25T18:16:17.261Z,3.00
2022-08-25T18:18:44.611Z,2.75
2022-08-25T18:21:16.515Z,2.60
2022-08-25T18:23:43.511Z,3.50
2022-08-25T18:26:12.818Z,3.17
2022-08-25T18:28:40.173Z,2.45
2022-08-25T18:31:11.988Z,2.22
2022-08-25T18:33:41.790Z,2.40
2022-08-25T18:36:09.772Z,2.42
2022-08-25T18:38:58.182Z,2.42
2022-08-25T18:41:25.774Z,2.35
2022-08-25T18:43:53.086Z,1.88
2022-08-25T18:46:19.833Z,2.25
2022-08-25T18:48:49.618Z,2.30
2022-08-25T18:51:23.127Z,2.28
2022-08-25T18:53:51.279Z,2.10
2022-08-25T18:56:22.433Z,2.38
2022-08-25T18:58:49.071Z,1.95
2022-08-25T19:01:17.648Z,2.58
2022-08-25T19:03:45.436Z,2.50
2022-08-25T19:06:11.995Z,2.47
2022-08-25T19:08:41.600Z,2.55
2022-08-25T19:11:09.923Z,2.60
2022-08-25T19:13:37.138Z,2.28
2022-08-25T19:16:20.654Z,2.53
2022-08-25T19:18:49.039Z,2.50
2022-08-25T19:21:22.794Z,2.20
2022-08-25T19:23:50.379Z,2.50
2022-08-25T19:26:17.994Z,2.53
2022-08-25T19:28:48.930Z,2.40
2022-08-25T19:31:18.229Z,2.25
2022-08-25T19:33:46.484Z,2.10
2022-08-25T19:36:13.612Z,2.38
2022-08-25T19:38:40.160Z,2.22
2022-08-25T19:41:13.983Z,1.95
2022-08-25T19:43:55.165Z,1.88
2022-08-25T19:46:32.130Z,2.30
2022-08-25T19:49:06.833Z,2.45
2022-08-25T19:51:34.512Z,2.65
2022-08-25T19:54:02.857Z,2.40
2022-08-25T19:56:30.091Z,2.70
2022-08-25T19:58:57.310Z,2.60
2022-08-25T20:01:24.344Z,2.65
2022-08-25T20:03:52.095Z,2.38
2022-08-25T20:06:19.011Z,2.72
2022-08-25T20:08:45.550Z,2.72
2022-08-25T20:11:12.042Z,2.63
2022-08-25T20:13:38.552Z,2.55
2022-08-25T20:16:05.551Z,2.42
2022-08-25T20:18:32.268Z,2.33
2022-08-25T20:20:58.729Z,2.55
2022-08-25T20:23:43.693Z,2.28
2022-08-25T20:26:10.208Z,2.33
2022-08-25T20:28:36.645Z,2.63
2022-08-25T20:31:03.134Z,2.65
2022-08-25T20:33:29.677Z,3.00
2022-08-25T20:35:56.455Z,2.70
2022-08-25T20:38:24.794Z,2.92
2022-08-25T20:40:52.645Z,2.75
2022-08-25T20:43:20.799Z,2.50
2022-08-25T20:45:47.750Z,2.88
2022-08-25T20:48:14.288Z,3.03
2022-08-25T20:50:40.804Z,3.05
2022-08-25T20:53:10.196Z,3.55
2022-08-25T20:55:43.899Z,2.70
2022-08-25T20:58:12.678Z,3.00
2022-08-25T21:00:45.081Z,2.67
2022-08-25T21:03:11.856Z,2.67
2022-08-25T21:05:39.779Z,3.22
2022-08-25T21:08:08.808Z,2.38
2022-08-25T21:10:35.386Z,3.22
2022-08-25T21:13:02.124Z,3.30
2022-08-25T21:15:30.004Z,2.55
2022-08-25T21:17:56.557Z,2.17
2022-08-25T21:20:24.669Z,2.45
2022-08-25T21:22:52.361Z,2.20
2022-08-25T21:25:21.239Z,2.47
2022-08-25T21:27:48.008Z,2.28
2022-08-25T21:30:16.309Z,2.92
2022-08-25T21:32:52.927Z,2.42
2022-08-25T21:35:21.334Z,2.47
2022-08-25T21:37:53.357Z,2.60
2022-08-25T21:40:21.718Z,2.80
2022-08-25T21:42:48.830Z,2.60
2022-08-25T21:45:15.498Z,2.80
2022-08-25T21:47:42.609Z,2.75
2022-08-25T21:50:11.095Z,2.97
2022-08-25T21:52:37.573Z,3.05
2022-08-25T21:55:06.147Z,2.90
2022-08-25T21:57:32.874Z,2.90
2022-08-25T22:00:07.874Z,2.70
2022-08-25T22:02:35.522Z,3.33
2022-08-25T22:05:02.030Z,2.70
2022-08-25T22:07:29.233Z,3.03
2022-08-25T22:12:27.711Z,3.22
2022-08-25T22:14:54.186Z,3.45
2022-08-25T22:17:24.316Z,3.28
2022-08-25T22:19:53.696Z,3.05
2022-08-25T22:22:21.139Z,3.08
2022-08-25T22:24:47.714Z,2.83
2022-08-25T22:27:15.690Z,4.18
2022-08-25T22:29:43.685Z,2.70
2022-08-25T22:32:10.751Z,3.00
2022-08-25T22:34:40.292Z,2.60
2022-08-25T22:37:07.136Z,3.35
2022-08-25T22:39:34.954Z,3.05
2022-08-25T22:42:02.910Z,2.80
2022-08-25T22:44:30.039Z,3.03
2022-08-25T22:46:56.649Z,2.70
2022-08-25T22:49:23.683Z,2.55
2022-08-25T22:51:50.216Z,3.15
2022-08-25T22:54:17.598Z,2.70
2022-08-25T22:56:44.153Z,2.78
2022-08-25T22:59:12.461Z,3.22
2022-08-25T23:01:39.683Z,2.72
2022-08-25T23:04:06.502Z,2.92
2022-08-25T23:06:34.480Z,3.15
2022-08-25T23:09:01.885Z,3.17
2022-08-25T23:11:29.125Z,3.30
2022-08-25T23:13:57.761Z,3.50
2022-08-25T23:16:25.244Z,3.20
2022-08-25T23:18:52.770Z,3.35
2022-08-25T23:21:41.310Z,3.92
2022-08-25T23:24:11.049Z,3.63
2022-08-25T23:26:41.987Z,3.40
2022-08-25T23:29:18.134Z,3.70
2022-08-25T23:31:46.607Z,3.70
2022-08-25T23:34:13.765Z,3.95
2022-08-25T23:36:40.512Z,3.30
2022-08-25T23:39:07.788Z,3.50
2022-08-25T23:41:36.796Z,3.22
2022-08-25T23:44:05.387Z,3.40
2022-08-25T23:46:33.104Z,3.67
2022-08-25T23:48:59.677Z,3.63
2022-08-25T23:51:29.902Z,3.13
2022-08-25T23:53:57.304Z,3.10
2022-08-25T23:56:26.165Z,3.75
2022-08-25T23:58:55.158Z,3.38
